Byron Hills, Illinois
Current Conditions -  °F | °C
As of 8:18 AM on Monday 26 Jan 2015 (Local Time) from KDVN Reporting Station
Light Snow Light Snow  
Wind Chill: -14°   Ceiling: 2400
Heat Index: -7°   Visibility: 1.2mi
Dew Point: -9°   Wind: 13mph
Humidity: 81%   Direction: 170°S
Pressure: 29.93"   Gusts: NA
Location:  41.595°N, 90.2974°W
Report Text: KDVN 261418Z AUTO 17011KT 1 1/4SM -SN OVC024 M07/M09 A2993 RMK AO2 SNB02 P0000 T10671094
Loading
Personal Weather Stations






























Interactive Weather Map New forecast layout! Learn more

10-Day Weather Forecast

Advertisements
Track Severe Weather on mobile